createdAt,value
2023-02-14T00:01:12.393Z,23.98
2023-02-14T00:03:40.578Z,28.45
2023-02-14T00:06:10.405Z,27.75
2023-02-14T00:08:37.807Z,34.72
2023-02-14T00:11:05.619Z,24.08
2023-02-14T00:13:32.990Z,28.45
2023-02-14T00:16:00.479Z,26.20
2023-02-14T00:18:47.734Z,28.10
2023-02-14T00:21:15.633Z,29.60
2023-02-14T00:23:42.887Z,31.75
2023-02-14T00:26:15.179Z,28.00
2023-02-14T00:28:43.738Z,24.88
2023-02-14T00:31:11.219Z,27.42
2023-02-14T00:33:38.545Z,28.10
2023-02-14T00:36:07.430Z,33.17
2023-02-14T00:38:34.957Z,32.33
2023-02-14T00:41:02.489Z,27.38
2023-02-14T00:43:29.797Z,32.35
2023-02-14T00:45:57.961Z,27.23
2023-02-14T00:48:25.594Z,28.88
2023-02-14T00:50:52.875Z,29.27
2023-02-14T00:53:20.088Z,25.13
2023-02-14T00:55:47.337Z,30.90
2023-02-14T00:58:15.437Z,26.98
2023-02-14T01:00:42.702Z,28.30
2023-02-14T01:03:10.059Z,29.10
2023-02-14T01:05:37.226Z,27.88
2023-02-14T01:08:05.045Z,27.10
2023-02-14T01:10:32.566Z,26.75
2023-02-14T01:13:00.054Z,28.40
2023-02-14T01:15:29.179Z,28.63
2023-02-14T01:17:56.424Z,33.03
2023-02-14T01:20:23.801Z,26.75
2023-02-14T01:22:52.329Z,30.55
2023-02-14T01:25:21.287Z,27.58
2023-02-14T01:27:48.588Z,28.05
2023-02-14T01:30:16.094Z,27.83
2023-02-14T01:32:43.480Z,28.63
2023-02-14T01:35:11.957Z,30.45
2023-02-14T01:37:39.234Z,31.42
2023-02-14T01:40:09.088Z,29.30
2023-02-14T01:42:37.266Z,26.13
2023-02-14T01:45:21.752Z,26.90
2023-02-14T01:47:54.290Z,30.55
2023-02-14T01:50:27.265Z,27.02
2023-02-14T01:53:20.110Z,30.73
2023-02-14T01:55:51.966Z,38.08
2023-02-14T01:58:24.349Z,30.25
2023-02-14T02:00:58.008Z,29.08
2023-02-14T02:03:27.718Z,33.67
2023-02-14T02:06:18.957Z,28.73
2023-02-14T02:09:13.064Z,27.75
2023-02-14T02:11:42.101Z,27.02
2023-02-14T02:14:16.010Z,26.88
2023-02-14T02:17:10.512Z,25.40
2023-02-14T02:20:02.617Z,28.48
2023-02-14T02:22:38.793Z,30.05
2023-02-14T02:25:43.196Z,31.83
2023-02-14T02:28:13.519Z,25.55
2023-02-14T02:31:18.436Z,29.35
2023-02-14T02:33:51.532Z,29.77
2023-02-14T02:36:48.029Z,30.02
2023-02-14T02:39:39.054Z,27.50
2023-02-14T02:42:25.839Z,27.30
2023-02-14T02:45:02.148Z,28.17
2023-02-14T02:47:44.521Z,25.13
2023-02-14T02:50:59.119Z,25.90
2023-02-14T02:53:43.862Z,24.38
2023-02-14T02:56:46.989Z,28.77
2023-02-14T02:59:37.918Z,26.48
2023-02-14T03:02:21.609Z,25.02
2023-02-14T03:04:55.409Z,25.27
2023-02-14T03:07:39.255Z,30.48
2023-02-14T03:10:15.517Z,29.27
2023-02-14T03:12:54.732Z,31.08
2023-02-14T03:15:25.022Z,31.52
2023-02-14T03:18:18.927Z,30.50
2023-02-14T03:21:18.730Z,26.80
2023-02-14T03:23:58.188Z,29.90
2023-02-14T03:26:35.166Z,30.20
2023-02-14T03:29:15.985Z,28.40
2023-02-14T03:32:07.074Z,26.75
2023-02-14T03:34:45.335Z,33.50
2023-02-14T03:37:31.569Z,32.50
2023-02-14T03:40:05.250Z,28.05
2023-02-14T03:42:37.239Z,28.65
2023-02-14T03:45:09.273Z,26.33
2023-02-14T03:47:38.952Z,31.95
2023-02-14T03:50:27.691Z,28.88
2023-02-14T03:52:57.478Z,25.60
2023-02-14T03:55:48.878Z,28.52
2023-02-14T03:58:26.492Z,28.85
2023-02-14T04:01:02.219Z,32.85
2023-02-14T04:03:32.390Z,26.50
2023-02-14T04:06:00.449Z,28.25
2023-02-14T04:08:29.424Z,24.35
2023-02-14T04:11:00.813Z,25.83
2023-02-14T04:13:28.717Z,31.73
2023-02-14T04:15:56.235Z,30.35
2023-02-14T04:18:41.981Z,27.00
2023-02-14T04:21:09.279Z,25.73
2023-02-14T04:23:36.509Z,34.10
2023-02-14T04:26:04.247Z,27.17
2023-02-14T04:28:32.243Z,28.15
2023-02-14T04:31:04.759Z,27.63
2023-02-14T04:33:32.944Z,35.95
2023-02-14T04:36:00.815Z,30.17
2023-02-14T04:38:28.190Z,29.77
2023-02-14T04:40:55.376Z,27.55
2023-02-14T04:43:22.593Z,28.45
2023-02-14T04:45:50.003Z,30.10
2023-02-14T04:48:17.361Z,27.90
2023-02-14T04:50:44.580Z,28.77
2023-02-14T04:53:11.845Z,31.73
2023-02-14T04:55:39.147Z,28.85
2023-02-14T04:58:06.370Z,29.90
2023-02-14T05:00:33.579Z,26.23
2023-02-14T05:03:00.785Z,29.23
2023-02-14T05:05:28.111Z,27.90
2023-02-14T05:07:55.362Z,32.67
2023-02-14T05:10:22.594Z,31.75
2023-02-14T05:12:49.836Z,32.17
2023-02-14T05:15:17.198Z,26.95
2023-02-14T05:17:44.517Z,32.38
2023-02-14T05:20:12.036Z,31.67
2023-02-14T05:22:39.256Z,31.00
2023-02-14T05:25:06.865Z,31.15
2023-02-14T05:27:34.093Z,33.05
2023-02-14T05:30:01.416Z,30.50
2023-02-14T05:32:28.765Z,32.28
2023-02-14T05:34:56.078Z,29.92
2023-02-14T05:37:23.509Z,32.28
2023-02-14T05:39:50.785Z,28.77
2023-02-14T05:42:18.051Z,32.60
2023-02-14T05:44:45.304Z,36.75
2023-02-14T05:47:13.251Z,33.35
2023-02-14T05:49:40.635Z,28.88
2023-02-14T05:52:07.887Z,34.20
2023-02-14T05:54:35.253Z,32.20
2023-02-14T05:57:02.512Z,27.38
2023-02-14T05:59:29.751Z,32.42
2023-02-14T06:01:57.011Z,30.23
2023-02-14T06:04:24.453Z,31.50
2023-02-14T06:06:51.700Z,30.67
2023-02-14T06:09:19.938Z,30.35
2023-02-14T06:11:47.220Z,31.45
2023-02-14T06:14:14.653Z,33.85
2023-02-14T06:16:41.970Z,38.75
2023-02-14T06:19:09.378Z,34.80
2023-02-14T06:21:36.910Z,32.10
2023-02-14T06:24:04.447Z,33.72
2023-02-14T06:26:31.711Z,31.75
2023-02-14T06:28:59.579Z,28.35
2023-02-14T06:31:26.953Z,33.13
2023-02-14T06:33:54.719Z,28.55
2023-02-14T06:36:22.770Z,38.70
2023-02-14T06:38:50.360Z,31.88
2023-02-14T06:41:17.668Z,30.27
2023-02-14T06:43:48.800Z,27.65
2023-02-14T06:46:17.284Z,30.88
2023-02-14T06:48:44.760Z,30.58
2023-02-14T06:51:12.747Z,33.75
2023-02-14T06:53:40.084Z,34.47
2023-02-14T06:56:07.540Z,31.10
2023-02-14T06:58:34.880Z,31.05
2023-02-14T07:01:02.334Z,31.15
2023-02-14T07:03:29.814Z,36.03
2023-02-14T07:05:58.252Z,32.78
2023-02-14T07:08:26.408Z,30.02
2023-02-14T07:10:58.379Z,34.75
2023-02-14T07:13:26.084Z,33.05
2023-02-14T07:15:53.486Z,31.52
2023-02-14T07:18:20.855Z,34.05
2023-02-14T07:20:49.622Z,32.03
2023-02-14T07:23:17.293Z,34.88
2023-02-14T07:25:44.685Z,33.25
2023-02-14T07:28:12.012Z,31.88
2023-02-14T07:30:39.325Z,31.70
2023-02-14T07:33:06.658Z,36.72
2023-02-14T07:35:35.319Z,39.72
2023-02-14T07:38:02.627Z,35.70
2023-02-14T07:40:30.159Z,33.80
2023-02-14T07:42:59.124Z,39.00
2023-02-14T07:45:26.509Z,38.35
2023-02-14T07:47:55.290Z,39.97
2023-02-14T07:50:23.436Z,35.05
2023-02-14T07:52:50.946Z,37.28
2023-02-14T07:55:19.477Z,38.90
2023-02-14T07:57:50.175Z,31.20
2023-02-14T08:00:18.279Z,33.50
2023-02-14T08:02:45.713Z,36.30
2023-02-14T08:05:13.257Z,36.78
2023-02-14T08:07:40.547Z,37.05
2023-02-14T08:10:08.166Z,34.95
2023-02-14T08:12:53.767Z,36.75
2023-02-14T08:15:39.603Z,40.25
2023-02-14T08:18:06.842Z,44.15
2023-02-14T08:20:34.065Z,36.55
2023-02-14T08:23:01.366Z,39.28
2023-02-14T08:25:28.692Z,39.38
2023-02-14T08:27:56.039Z,38.33
2023-02-14T08:30:23.865Z,47.33
2023-02-14T08:32:51.221Z,42.35
2023-02-14T08:35:18.656Z,38.47
2023-02-14T08:37:46.048Z,39.90
2023-02-14T08:40:13.496Z,42.33
2023-02-14T08:42:40.942Z,40.30
2023-02-14T08:45:08.740Z,36.00
2023-02-14T08:47:38.457Z,39.05
2023-02-14T08:50:07.843Z,39.95
2023-02-14T08:52:35.177Z,35.08
2023-02-14T08:55:03.631Z,37.60
2023-02-14T08:57:30.942Z,36.10
2023-02-14T08:59:58.221Z,36.45
2023-02-14T09:02:25.431Z,37.90
2023-02-14T09:04:52.683Z,51.17
2023-02-14T09:07:20.061Z,62.03
2023-02-14T09:09:47.344Z,50.83
2023-02-14T09:12:14.539Z,47.38
2023-02-14T09:14:46.819Z,46.72
2023-02-14T09:17:14.942Z,49.85
2023-02-14T09:19:42.450Z,42.45
2023-02-14T09:22:11.455Z,47.38
2023-02-14T09:24:40.165Z,57.33
2023-02-14T09:27:08.533Z,45.15
2023-02-14T09:29:35.830Z,52.05
2023-02-14T09:32:03.952Z,48.22
2023-02-14T09:34:33.365Z,58.92
2023-02-14T09:37:00.613Z,55.58
2023-02-14T09:39:27.843Z,54.00
2023-02-14T09:42:19.769Z,46.50
2023-02-14T09:44:56.510Z,47.25
2023-02-14T09:47:36.062Z,48.30
2023-02-14T09:50:24.102Z,48.97
2023-02-14T09:52:57.023Z,43.72
2023-02-14T09:55:30.496Z,46.67
2023-02-14T09:58:19.328Z,41.95
2023-02-14T10:00:52.279Z,183.27
2023-02-14T10:03:43.295Z,183.68
2023-02-14T10:06:42.969Z,179.95
2023-02-14T10:09:15.989Z,117.18
2023-02-14T10:11:47.653Z,63.60
2023-02-14T10:14:19.259Z,42.95
2023-02-14T10:17:07.141Z,84.00
2023-02-14T10:19:49.886Z,67.97
2023-02-14T10:22:23.919Z,62.03
2023-02-14T10:25:02.771Z,59.30
2023-02-14T10:27:36.459Z,52.63
2023-02-14T10:30:21.390Z,44.05
2023-02-14T10:32:53.331Z,43.47
2023-02-14T10:35:39.323Z,50.50
2023-02-14T10:38:32.748Z,49.90
2023-02-14T10:41:19.309Z,52.22
2023-02-14T10:44:09.004Z,34.00
2023-02-14T10:46:54.199Z,41.53
2023-02-14T10:49:36.451Z,42.90
2023-02-14T10:52:12.647Z,42.20
2023-02-14T10:54:43.860Z,40.38
2023-02-14T10:57:36.205Z,57.92
2023-02-14T11:00:07.301Z,69.53
2023-02-14T11:02:42.804Z,46.72
2023-02-14T11:05:26.104Z,33.13
2023-02-14T11:07:53.688Z,42.67
2023-02-14T11:10:30.921Z,38.45
2023-02-14T11:12:58.427Z,39.25
2023-02-14T11:15:40.452Z,49.35
2023-02-14T11:18:24.593Z,45.60
2023-02-14T11:21:04.625Z,46.03
2023-02-14T11:23:54.291Z,53.95
2023-02-14T11:26:26.833Z,56.92
2023-02-14T11:29:01.045Z,59.47
2023-02-14T11:31:34.205Z,36.75
2023-02-14T11:34:05.053Z,37.40
2023-02-14T11:36:40.236Z,44.03
2023-02-14T11:39:28.559Z,36.75
2023-02-14T11:41:59.436Z,51.50
2023-02-14T11:44:29.261Z,51.25
2023-02-14T11:46:57.927Z,39.72
2023-02-14T11:49:36.370Z,38.90
2023-02-14T11:52:15.248Z,30.13
2023-02-14T11:54:45.046Z,38.33
2023-02-14T11:57:16.535Z,29.13
2023-02-14T11:59:48.429Z,30.35
2023-02-14T12:02:31.100Z,30.00
2023-02-14T12:05:26.763Z,25.50
2023-02-14T12:08:06.013Z,25.00
2023-02-14T12:10:38.748Z,21.73
2023-02-14T12:13:09.133Z,25.13
2023-02-14T12:15:44.445Z,23.33
2023-02-14T12:18:43.090Z,22.20
2023-02-14T12:21:26.706Z,21.48
2023-02-14T12:24:03.459Z,15.38
2023-02-14T12:26:49.848Z,10.48
2023-02-14T12:29:47.253Z,12.75
2023-02-14T12:32:24.966Z,9.23
2023-02-14T12:35:00.888Z,18.73
2023-02-14T12:38:02.674Z,23.65
2023-02-14T12:41:07.982Z,15.90
2023-02-14T12:43:55.420Z,18.80
2023-02-14T12:46:34.532Z,13.23
2023-02-14T12:49:22.663Z,12.07
2023-02-14T12:52:28.288Z,17.70
2023-02-14T12:57:58.156Z,16.80
2023-02-14T13:00:40.477Z,18.77
2023-02-14T13:03:39.569Z,27.30
2023-02-14T13:06:30.886Z,30.63
2023-02-14T13:09:20.531Z,24.35
2023-02-14T13:11:56.649Z,21.98
2023-02-14T13:14:42.435Z,28.17
2023-02-14T13:17:28.445Z,23.52
2023-02-14T13:20:03.989Z,24.00
2023-02-14T13:22:34.012Z,30.98
2023-02-14T13:25:05.695Z,28.65
2023-02-14T13:27:37.492Z,29.42
2023-02-14T13:30:14.696Z,26.00
2023-02-14T13:32:47.079Z,26.48
2023-02-14T13:35:20.049Z,27.60
2023-02-14T13:37:56.194Z,16.88
2023-02-14T13:40:26.219Z,21.65
2023-02-14T13:42:58.611Z,19.08
2023-02-14T13:45:37.817Z,16.40
2023-02-14T13:48:15.550Z,15.65
2023-02-14T13:50:54.799Z,10.70
2023-02-14T13:53:34.369Z,19.48
2023-02-14T13:56:16.592Z,9.65
2023-02-14T13:58:52.477Z,12.30
2023-02-14T14:01:48.352Z,15.60
2023-02-14T14:04:36.720Z,13.43
2023-02-14T14:07:03.906Z,14.65
2023-02-14T14:09:43.247Z,13.75
2023-02-14T14:12:28.952Z,12.32
2023-02-14T14:15:07.406Z,8.93
2023-02-14T14:17:46.991Z,7.82
2023-02-14T14:20:18.776Z,11.80
2023-02-14T14:22:55.692Z,12.63
2023-02-14T14:25:34.885Z,10.75
2023-02-14T14:28:04.062Z,14.10
2023-02-14T14:30:35.658Z,13.68
2023-02-14T14:33:23.640Z,12.95
2023-02-14T14:36:07.979Z,10.63
2023-02-14T14:38:48.151Z,8.35
2023-02-14T14:41:15.593Z,16.48
2023-02-14T14:43:43.638Z,15.30
2023-02-14T14:46:15.938Z,11.60
2023-02-14T14:48:51.567Z,9.75
2023-02-14T14:51:29.403Z,10.60
2023-02-14T14:54:01.176Z,15.95
2023-02-14T14:56:36.204Z,12.90
2023-02-14T14:59:37.348Z,10.40
2023-02-14T15:02:20.663Z,9.95
2023-02-14T15:04:47.985Z,11.55
2023-02-14T15:07:33.197Z,13.40
2023-02-14T15:10:00.925Z,10.25
2023-02-14T15:12:48.474Z,15.13
2023-02-14T15:15:18.256Z,12.40
2023-02-14T15:17:46.788Z,20.02
2023-02-14T15:20:22.178Z,16.77
2023-02-14T15:22:51.420Z,15.13
2023-02-14T15:25:22.450Z,11.15
2023-02-14T15:27:50.575Z,10.75
2023-02-14T15:30:23.863Z,7.05
2023-02-14T15:32:52.224Z,6.05
2023-02-14T15:35:26.450Z,9.07
2023-02-14T15:37:54.690Z,8.52
2023-02-14T15:40:24.884Z,7.53
2023-02-14T15:42:57.485Z,7.72
2023-02-14T15:45:30.900Z,7.18
2023-02-14T15:48:02.438Z,10.75
2023-02-14T15:50:31.771Z,13.02
2023-02-14T15:53:25.250Z,13.85
2023-02-14T15:55:53.050Z,9.65
2023-02-14T15:58:29.718Z,9.25
2023-02-14T16:00:57.083Z,12.90
2023-02-14T16:03:27.365Z,19.02
2023-02-14T16:05:54.902Z,18.52
2023-02-14T16:08:30.556Z,20.63
2023-02-14T16:11:02.455Z,21.73
2023-02-14T16:13:38.233Z,23.38
2023-02-14T16:16:07.340Z,20.02
2023-02-14T16:18:35.830Z,21.25
2023-02-14T16:21:24.690Z,17.67
2023-02-14T16:24:10.880Z,17.77
2023-02-14T16:26:41.062Z,12.98
2023-02-14T16:29:10.148Z,21.48
2023-02-14T16:32:14.250Z,16.15
2023-02-14T16:34:34.879Z,21.27
2023-02-14T16:37:08.941Z,15.98
2023-02-14T16:39:38.941Z,15.90
2023-02-14T16:42:06.328Z,12.32
2023-02-14T16:44:33.563Z,14.40
2023-02-14T16:47:02.521Z,11.20
2023-02-14T16:49:30.189Z,13.57
2023-02-14T16:51:57.667Z,19.48
2023-02-14T16:54:26.809Z,14.60
2023-02-14T16:57:03.271Z,14.45
2023-02-14T16:59:30.786Z,16.42
2023-02-14T17:01:58.779Z,18.35
2023-02-14T17:04:26.163Z,13.18
2023-02-14T17:06:57.228Z,13.55
2023-02-14T17:09:29.790Z,14.00
2023-02-14T17:12:06.674Z,17.10
2023-02-14T17:14:38.433Z,16.90
2023-02-14T17:17:05.812Z,23.42
2023-02-14T17:19:33.885Z,21.67
2023-02-14T17:22:01.193Z,19.27
2023-02-14T17:24:28.490Z,21.67
2023-02-14T17:26:55.701Z,14.43
2023-02-14T17:29:22.938Z,20.02
2023-02-14T17:31:50.219Z,15.77
2023-02-14T17:34:17.513Z,16.45
2023-02-14T17:36:44.834Z,16.75
2023-02-14T17:39:12.128Z,17.73
2023-02-14T17:41:39.825Z,15.57
2023-02-14T17:44:07.388Z,23.38
2023-02-14T17:46:34.715Z,20.15
2023-02-14T17:49:02.757Z,19.25
2023-02-14T17:51:30.290Z,18.88
2023-02-14T17:53:59.032Z,16.33
2023-02-14T17:56:27.290Z,15.48
2023-02-14T17:58:55.311Z,17.20
2023-02-14T18:01:25.317Z,20.00
2023-02-14T18:03:54.113Z,17.48
2023-02-14T18:06:21.775Z,14.60
2023-02-14T18:08:51.863Z,15.35
2023-02-14T18:11:20.878Z,21.23
2023-02-14T18:13:48.576Z,24.92
2023-02-14T18:16:18.413Z,16.55
2023-02-14T18:18:46.224Z,16.83
2023-02-14T18:21:16.106Z,17.15
2023-02-14T18:23:43.694Z,16.35
2023-02-14T18:26:13.462Z,15.02
2023-02-14T18:28:40.795Z,18.98
2023-02-14T18:31:13.909Z,17.88
2023-02-14T18:33:41.583Z,14.98
2023-02-14T18:36:12.280Z,17.08
2023-02-14T18:38:43.974Z,17.00
2023-02-14T18:41:13.880Z,15.75
2023-02-14T18:43:43.599Z,13.88
2023-02-14T18:46:13.578Z,18.50
2023-02-14T18:48:40.934Z,17.35
2023-02-14T18:51:11.057Z,19.30
2023-02-14T18:53:39.277Z,16.17
2023-02-14T18:56:09.032Z,16.95
2023-02-14T18:58:36.427Z,15.80
2023-02-14T19:01:15.266Z,19.63
2023-02-14T19:03:43.217Z,18.73
2023-02-14T19:06:12.466Z,17.10
2023-02-14T19:08:41.081Z,15.65
2023-02-14T19:11:14.039Z,18.67
2023-02-14T19:13:45.935Z,18.42
2023-02-14T19:16:16.051Z,16.92
2023-02-14T19:18:43.764Z,17.85
2023-02-14T19:21:25.835Z,16.15
2023-02-14T19:23:55.020Z,18.58
2023-02-14T19:26:27.305Z,16.42
2023-02-14T19:28:56.856Z,18.92
2023-02-14T19:31:25.106Z,19.70
2023-02-14T19:33:52.728Z,20.73
2023-02-14T19:36:21.816Z,19.73
2023-02-14T19:38:52.612Z,21.75
2023-02-14T19:41:23.160Z,25.58
2023-02-14T19:43:51.451Z,27.10
2023-02-14T19:46:20.674Z,26.30
2023-02-14T19:48:48.785Z,22.50
2023-02-14T19:51:23.573Z,25.63
2023-02-14T19:53:50.980Z,25.58
2023-02-14T19:56:26.825Z,21.83
2023-02-14T19:58:56.185Z,23.50
2023-02-14T20:01:27.064Z,21.60
2023-02-14T20:03:54.454Z,21.25
2023-02-14T20:06:22.718Z,25.13
2023-02-14T20:08:50.558Z,25.20
2023-02-14T20:11:32.844Z,20.55
2023-02-14T20:14:01.043Z,24.08
2023-02-14T20:16:31.102Z,29.42
2023-02-14T20:19:00.852Z,26.45
2023-02-14T20:21:28.517Z,25.63
2023-02-14T20:24:03.419Z,25.17
2023-02-14T20:26:33.088Z,21.35
2023-02-14T20:29:06.050Z,23.90
2023-02-14T20:31:34.708Z,20.63
2023-02-14T20:34:02.442Z,29.58
2023-02-14T20:36:30.852Z,25.63
2023-02-14T20:39:00.625Z,23.30
2023-02-14T20:41:29.214Z,23.55
2023-02-14T20:44:04.160Z,27.65
2023-02-14T20:46:32.748Z,24.98
2023-02-14T20:49:00.155Z,21.25
2023-02-14T20:51:28.017Z,24.88
2023-02-14T20:53:55.955Z,25.35
2023-02-14T20:56:23.955Z,22.17
2023-02-14T20:58:51.542Z,27.27
2023-02-14T21:01:21.710Z,20.50
2023-02-14T21:03:51.004Z,22.40
2023-02-14T21:06:23.711Z,22.60
2023-02-14T21:08:51.352Z,18.73
2023-02-14T21:11:20.307Z,26.08
2023-02-14T21:13:47.658Z,22.05
2023-02-14T21:16:18.067Z,24.10
2023-02-14T21:18:49.159Z,28.23
2023-02-14T21:21:25.865Z,24.92
2023-02-14T21:23:53.785Z,28.95
2023-02-14T21:26:21.767Z,28.30
2023-02-14T21:28:49.061Z,22.58
2023-02-14T21:31:20.856Z,27.27
2023-02-14T21:33:55.949Z,22.58
2023-02-14T21:36:26.327Z,26.00
2023-02-14T21:38:58.130Z,30.08
2023-02-14T21:41:27.947Z,32.53
2023-02-14T21:43:56.558Z,25.88
2023-02-14T21:46:32.048Z,27.05
2023-02-14T21:49:19.949Z,26.40
2023-02-14T21:51:48.115Z,24.20
2023-02-14T21:54:16.103Z,30.00
2023-02-14T21:56:43.949Z,27.35
2023-02-14T21:59:12.313Z,30.90
2023-02-14T22:01:42.071Z,27.70
2023-02-14T22:04:11.628Z,32.17
2023-02-14T22:06:40.778Z,32.17
2023-02-14T22:09:09.500Z,33.88
2023-02-14T22:11:37.058Z,31.50
2023-02-14T22:14:04.611Z,25.40
2023-02-14T22:16:32.339Z,26.58
2023-02-14T22:18:59.759Z,34.67
2023-02-14T22:21:27.935Z,30.85
2023-02-14T22:23:55.828Z,26.70
2023-02-14T22:26:25.979Z,30.80
2023-02-14T22:28:59.269Z,29.63
2023-02-14T22:31:29.351Z,24.48
2023-02-14T22:33:56.746Z,23.60
2023-02-14T22:36:24.075Z,33.72
2023-02-14T22:38:51.577Z,24.77
2023-02-14T22:41:22.030Z,25.73
2023-02-14T22:43:49.717Z,25.75
2023-02-14T22:46:28.181Z,30.52
2023-02-14T22:48:57.345Z,24.30
2023-02-14T22:51:39.623Z,33.92
2023-02-14T22:54:12.532Z,29.52
2023-02-14T22:56:44.384Z,30.30
2023-02-14T22:59:17.580Z,33.90
2023-02-14T23:01:45.897Z,26.95
2023-02-14T23:04:15.016Z,32.15
2023-02-14T23:06:42.569Z,30.08
2023-02-14T23:09:11.146Z,32.53
2023-02-14T23:11:40.322Z,30.42
2023-02-14T23:14:26.883Z,34.72
2023-02-14T23:17:12.566Z,29.23
2023-02-14T23:19:58.283Z,30.85
2023-02-14T23:22:40.150Z,28.38
2023-02-14T23:25:10.169Z,32.47
2023-02-14T23:27:41.933Z,30.65
2023-02-14T23:30:12.417Z,32.90
2023-02-14T23:32:40.015Z,33.80
2023-02-14T23:35:07.959Z,34.00
2023-02-14T23:37:35.398Z,33.13
2023-02-14T23:40:04.106Z,36.20
2023-02-14T23:42:31.429Z,32.83
2023-02-14T23:45:21.451Z,31.15
2023-02-14T23:47:48.880Z,37.45
2023-02-14T23:50:16.358Z,32.38
2023-02-14T23:52:44.739Z,37.90
2023-02-14T23:55:13.013Z,35.08
2023-02-14T23:57:40.496Z,35.75
